Terminal Aerodrome Forecast
Issued by NWS

Home | Current Version | Previous Version | Text Only | Print | Product List | Glossary Off
Versions: 1 2 3 4 5 6 7 8 9 10 11 12 13 14 15 16 17 18 19 20 21 22 23 24 25 26 27 28 29 30 31 32 33

000
FTUS43 KABR 120900 AAA
TAFPIR
TAF AMD
KPIR 120905Z 1209/1306 04006KT P6SM -SHRA VCTS OVC035CB
      TEMPO 1209/1212 BKN025CB
     FM121200 05006KT P6SM VCSH BKN040
     FM121800 15004KT P6SM BKN250=

USA.gov is the U.S. government's official web portal to all federal, state and local government web resources and services.